Time;durP1;ratioP1;P1;durP2;ratioP2;P2;SDS_P1;SDS_P2;PMS_P1;PMS_P2;Temp;Humidity;BMP_temperature;BMP_pressure;BME280_temperature;BME280_humidity;BME280_pressure;Samples;Min_cycle;Max_cycle;Signal;HPM_P1;HPM_P2
2021/01/13 00:00:48;;;;;;;29.51;15.63;;;;;;;-0.97;66.41;98744.06;348672;114;1962016;-72
2021/01/13 00:01:53;;;;;;;27.27;15.68;;;;;;;-0.97;66.40;98746.72;347027;114;1962002;-73
2021/01/13 00:03:00;;;;;;;22.68;14.37;;;;;;;-0.96;66.45;98737.77;306270;114;2890980;-73
2021/01/13 00:04:06;;;;;;;27.36;16.36;;;;;;;-0.98;66.50;98745.03;355285;111;1963992;-72
2021/01/13 00:05:15;;;;;;;28.11;15.42;;;;;;;-0.98;66.58;98740.59;349883;115;1962000;-72
2021/01/13 00:06:20;;;;;;;26.96;16.92;;;;;;;-0.98;66.63;98745.03;347967;117;1964070;-71
2021/01/13 00:07:26;;;;;;;31.54;17.06;;;;;;;-0.98;66.63;98742.38;347900;115;1962926;-72
2021/01/13 00:08:31;;;;;;;29.76;16.32;;;;;;;-0.98;66.67;98735.28;350130;114;1961982;-72
2021/01/13 00:09:37;;;;;;;28.72;15.69;;;;;;;-0.97;66.68;98734.28;326318;115;2542999;-73
2021/01/13 00:10:51;;;;;;;27.17;16.73;;;;;;;-0.96;66.70;98738.59;343519;113;1961907;-72
2021/01/13 00:11:57;;;;;;;28.33;16.51;;;;;;;-0.95;66.67;98734.14;340294;109;2204932;-72
2021/01/13 00:13:03;;;;;;;31.51;17.06;;;;;;;-0.94;66.48;98736.63;365822;109;1960615;-72
2021/01/13 00:14:08;;;;;;;28.22;15.18;;;;;;;-0.95;66.38;98734.14;353828;113;1962082;-71
2021/01/13 00:15:15;;;;;;;29.51;16.82;;;;;;;-0.94;66.30;98725.20;331973;113;2442924;-71
2021/01/13 00:16:23;;;;;;;27.52;15.68;;;;;;;-0.95;66.28;98720.89;325011;113;2657046;-72
2021/01/13 00:17:29;;;;;;;28.64;15.99;;;;;;;-0.98;66.27;98729.98;349029;113;1963932;-72
2021/01/13 00:18:34;;;;;;;28.87;15.70;;;;;;;-0.97;66.22;98726.34;352306;115;1962971;-72
2021/01/13 00:19:40;;;;;;;28.43;16.16;;;;;;;-0.97;66.28;98728.16;354024;113;1962005;-72
2021/01/13 00:20:47;;;;;;;29.91;15.92;;;;;;;-0.98;66.24;98729.98;338897;113;1962946;-71
2021/01/13 00:21:54;;;;;;;26.49;15.21;;;;;;;-0.97;66.24;98726.34;357060;113;1961922;-72
2021/01/13 00:23:02;;;;;;;27.35;15.59;;;;;;;-0.99;66.27;98720.34;331527;115;2198950;-72
2021/01/13 00:24:08;;;;;;;31.19;17.07;;;;;;;-0.97;66.18;98715.73;352834;115;1963961;-72
2021/01/13 00:25:15;;;;;;;30.74;16.76;;;;;;;-0.98;66.24;98715.88;320765;107;2204941;-72
2021/01/13 00:26:24;;;;;;;29.88;16.75;;;;;;;-0.99;66.31;98716.88;314041;107;2074198;-73
2021/01/13 00:27:31;;;;;;;29.63;17.21;;;;;;;-0.99;66.25;98717.70;345481;116;1965007;-73
2021/01/13 00:28:37;;;;;;;29.81;16.49;;;;;;;-1.00;66.26;98713.40;345345;118;1961979;-72
2021/01/13 00:29:42;;;;;;;32.03;16.82;;;;;;;-1.00;66.19;98713.40;322545;118;1961997;-73
2021/01/13 00:30:48;;;;;;;31.12;17.86;;;;;;;-0.99;66.23;98714.22;345583;116;1961991;-73
2021/01/13 00:31:59;;;;;;;28.22;16.17;;;;;;;-0.99;66.25;98711.58;345431;118;1961944;-72
2021/01/13 00:33:06;;;;;;;30.51;16.49;;;;;;;-0.98;66.18;98710.58;333151;115;2316974;-72
2021/01/13 00:34:15;;;;;;;28.97;16.44;;;;;;;-0.98;66.19;98711.43;349869;116;1961982;-73
2021/01/13 00:35:20;;;;;;;30.56;17.16;;;;;;;-0.97;66.18;98707.78;348857;116;1962018;-72
2021/01/13 00:36:29;;;;;;;32.36;17.89;;;;;;;-0.97;66.14;98706.95;349411;113;1961979;-73
2021/01/13 00:37:39;;;;;;;33.50;17.84;;;;;;;-0.97;66.10;98699.00;350160;113;1963046;-72
2021/01/13 00:38:44;;;;;;;33.19;18.32;;;;;;;-0.96;66.04;98695.35;345338;116;1964969;-72
2021/01/13 00:39:50;;;;;;;30.62;17.31;;;;;;;-0.97;66.04;98691.05;345424;115;1961950;-73
2021/01/13 00:40:55;;;;;;;31.92;17.94;;;;;;;-0.97;66.11;98688.40;320016;116;2518950;-72
2021/01/13 00:42:02;;;;;;;32.14;17.61;;;;;;;-0.97;66.08;98693.70;327387;116;1965072;-72
2021/01/13 00:43:08;;;;;;;34.27;18.97;;;;;;;-0.98;66.14;98684.06;351172;116;1964018;-73
2021/01/13 00:44:14;;;;;;;29.71;16.76;;;;;;;-1.01;66.37;98681.73;321816;113;2583954;-72
2021/01/13 00:45:19;;;;;;;31.58;17.91;;;;;;;-1.02;66.44;98680.08;342519;116;1961940;-73
2021/01/13 00:46:31;;;;;;;34.94;18.62;;;;;;;-1.01;66.51;98682.56;345332;118;1962003;-72
2021/01/13 00:47:37;;;;;;;34.03;18.83;;;;;;;-0.99;66.51;98685.06;323539;116;2545933;-73
2021/01/13 00:48:42;;;;;;;35.38;20.49;;;;;;;-0.97;66.44;98683.09;320096;118;1961782;-73
2021/01/13 00:49:47;;;;;;;33.28;18.03;;;;;;;-0.97;66.47;98678.62;345527;117;1961996;-72
2021/01/13 00:50:52;;;;;;;32.81;18.18;;;;;;;-0.96;66.49;98676.80;345507;116;1962014;-72
2021/01/13 00:51:58;;;;;;;35.57;19.31;;;;;;;-0.94;66.45;98670.35;345411;118;1961948;-72
2021/01/13 00:53:04;;;;;;;33.78;18.76;;;;;;;-0.94;66.44;98670.35;330430;113;2361001;-72
2021/01/13 00:54:11;;;;;;;37.79;18.13;;;;;;;-0.95;66.60;98666.05;326388;113;1961910;-72
2021/01/13 00:55:18;;;;;;;31.73;19.02;;;;;;;-0.94;66.58;98664.22;307391;116;2846942;-73
2021/01/13 00:56:25;;;;;;;32.67;17.54;;;;;;;-0.91;66.53;98669.20;344808;117;1963960;-73
2021/01/13 00:57:31;;;;;;;34.54;19.12;;;;;;;-0.92;66.35;98671.03;343601;117;1962941;-72
2021/01/13 00:58:37;;;;;;;30.81;17.81;;;;;;;-0.94;66.26;98669.53;332830;118;1962022;-73
2021/01/13 00:59:44;;;;;;;34.86;19.58;;;;;;;-0.93;66.24;98672.03;345970;115;1963951;-72
2021/01/13 01:00:51;;;;;;;32.58;17.45;;;;;;;-0.93;66.15;98661.43;323851;116;2210049;-73
2021/01/13 01:01:57;;;;;;;31.08;18.51;;;;;;;-0.94;66.14;98670.35;348077;116;1963003;-72
2021/01/13 01:03:04;;;;;;;29.13;17.77;;;;;;;-0.94;66.12;98662.40;324397;116;2538939;-73
2021/01/13 01:04:11;;;;;;;30.49;17.09;;;;;;;-0.93;66.08;98665.88;335366;116;1963952;-72
2021/01/13 01:05:17;;;;;;;29.22;17.36;;;;;;;-0.95;66.09;98660.75;351169;115;1961957;-73
2021/01/13 01:06:24;;;;;;;31.57;17.77;;;;;;;-0.95;66.09;98659.92;351251;116;1961967;-73
2021/01/13 01:07:30;;;;;;;30.52;16.93;;;;;;;-0.98;66.08;98660.21;351449;116;1961929;-73
2021/01/13 01:08:36;;;;;;;32.68;18.84;;;;;;;-0.97;66.10;98659.24;317106;116;2228029;-72
2021/01/13 01:09:42;;;;;;;28.77;18.53;;;;;;;-0.98;66.17;98655.77;352047;115;1963012;-72
2021/01/13 01:10:54;;;;;;;35.43;18.17;;;;;;;-0.99;66.13;98655.91;318687;116;2576031;-73
2021/01/13 01:12:01;;;;;;;33.13;18.35;;;;;;;-1.00;66.25;98662.21;350619;116;1962070;-72
2021/01/13 01:13:08;;;;;;;31.37;17.98;;;;;;;-1.01;66.22;98656.05;351143;113;1962933;-73
2021/01/13 01:14:13;;;;;;;31.23;17.79;;;;;;;-1.00;66.16;98663.03;324807;115;1961957;-73
2021/01/13 01:15:19;;;;;;;30.13;18.33;;;;;;;-0.98;66.06;98665.52;347622;116;1962970;-73
2021/01/13 01:16:33;;;;;;;32.88;19.13;;;;;;;-0.99;65.99;98664.69;351715;115;1961939;-73
2021/01/13 01:17:40;;;;;;;35.88;18.96;;;;;;;-1.00;66.08;98672.81;351537;116;1961972;-73
2021/01/13 01:18:45;;;;;;;32.71;19.78;;;;;;;-1.02;66.12;98674.78;320699;116;2601922;-73
2021/01/13 01:19:51;;;;;;;33.17;18.30;;;;;;;-1.03;66.18;98673.95;351277;115;1962039;-73
2021/01/13 01:20:57;;;;;;;30.00;18.20;;;;;;;-1.04;66.29;98674.92;348779;113;1961900;-73
2021/01/13 01:22:03;;;;;;;34.92;19.03;;;;;;;-1.05;66.38;98677.75;349218;114;1963905;-73
2021/01/13 01:23:08;;;;;;;33.04;19.08;;;;;;;-1.04;66.49;98682.05;321545;118;1960861;-73
2021/01/13 01:24:14;;;;;;;31.18;16.91;;;;;;;-1.04;66.53;98674.09;351569;114;1962039;-73
2021/01/13 01:25:21;;;;;;;30.67;17.27;;;;;;;-1.03;66.58;98679.26;349364;114;1963298;-73
2021/01/13 01:26:28;;;;;;;27.96;16.08;;;;;;;-1.02;66.66;98677.44;347412;115;1962048;-73
2021/01/13 01:27:34;;;;;;;25.29;15.59;;;;;;;-1.00;66.50;98668.34;363268;109;1961998;-72
2021/01/13 01:28:40;;;;;;;25.82;15.74;;;;;;;-1.00;66.45;98675.47;334018;111;2578917;-72
2021/01/13 01:29:46;;;;;;;24.04;14.85;;;;;;;-1.04;66.59;98660.84;358386;111;1962944;-73
2021/01/13 01:30:51;;;;;;;27.59;16.16;;;;;;;-1.02;66.55;98656.23;361427;111;1961867;-72
2021/01/13 01:31:57;;;;;;;25.98;15.86;;;;;;;-1.04;66.56;98651.07;367931;109;1961969;-73
2021/01/13 01:33:03;;;;;;;25.33;14.28;;;;;;;-1.03;66.55;98650.10;330200;109;2241049;-73
2021/01/13 01:34:08;;;;;;;25.97;14.68;;;;;;;-1.04;66.48;98642.30;364393;109;1963708;-72
2021/01/13 01:35:14;;;;;;;24.69;14.77;;;;;;;-1.04;66.49;98644.95;362161;111;1961947;-72
2021/01/13 01:36:21;;;;;;;22.69;13.57;;;;;;;-1.04;66.42;98645.77;342012;111;1961958;-72
2021/01/13 01:37:27;;;;;;;23.75;12.96;;;;;;;-1.06;66.39;98646.91;362455;111;1962033;-72
2021/01/13 01:38:32;;;;;;;20.37;12.27;;;;;;;-1.05;66.23;98640.64;358452;113;1963964;-73
2021/01/13 01:39:38;;;;;;;23.11;13.07;;;;;;;-1.07;66.03;98643.44;363703;107;1963898;-73
2021/01/13 01:40:45;;;;;;;22.32;12.47;;;;;;;-1.12;66.10;98637.77;360447;111;1962031;-73
2021/01/13 01:41:50;;;;;;;19.07;12.77;;;;;;;-1.14;66.28;98639.74;361181;109;1961873;-73
2021/01/13 01:42:56;;;;;;;20.85;12.92;;;;;;;-1.14;66.44;98634.45;363757;109;1962022;-73
2021/01/13 01:44:02;;;;;;;22.69;12.74;;;;;;;-1.14;66.46;98627.34;337543;109;2447003;-73
2021/01/13 01:45:08;;;;;;;21.28;12.48;;;;;;;-1.13;66.28;98629.00;349408;111;1961952;-72
2021/01/13 01:46:15;;;;;;;20.79;12.53;;;;;;;-1.15;66.32;98620.37;361221;110;1963991;-73
2021/01/13 01:47:40;;;;;;;19.39;12.04;;;;;;;-1.14;66.32;98615.89;365475;109;1962898;-71
2021/01/13 01:48:57;;;;;;;19.44;11.45;;;;;;;-1.15;66.32;98615.07;337940;111;1961771;-73
2021/01/13 01:50:05;;;;;;;22.05;13.13;;;;;;;-1.13;66.17;98614.92;334787;113;2864035;-73
2021/01/13 01:51:14;;;;;;;19.72;11.33;;;;;;;-1.14;66.14;98618.55;360050;111;1961919;-71
2021/01/13 01:52:19;;;;;;;18.82;11.84;;;;;;;-1.13;66.29;98625.52;363339;109;1960855;-72
2021/01/13 01:53:44;;;;;;;19.78;11.14;;;;;;;-1.14;66.30;98613.24;364552;111;1961889;-72
2021/01/13 01:54:53;;;;;;;17.66;11.13;;;;;;;-1.12;66.28;98611.27;364193;108;1961938;-73
2021/01/13 01:56:12;;;;;;;21.19;12.28;;;;;;;-1.13;66.11;98617.58;349043;116;1961963;-73
2021/01/13 01:57:20;;;;;;;18.54;11.76;;;;;;;-1.14;66.02;98611.45;345287;114;1960785;-72
2021/01/13 01:58:28;;;;;;;17.46;10.78;;;;;;;-1.16;66.04;98610.77;344825;116;1963962;-72
2021/01/13 01:59:57;;;;;;;19.86;11.58;;;;;;;-1.15;66.17;98611.59;304393;114;2241959;-72
2021/01/13 02:01:05;;;;;;;18.61;11.24;;;;;;;-1.14;66.17;98610.59;312784;112;2113956;-72
2021/01/13 02:02:24;;;;;;;22.22;12.98;;;;;;;-1.14;66.05;98607.95;352604;115;1962007;-71
2021/01/13 02:03:37;;;;;;;18.26;11.92;;;;;;;-1.15;66.05;98599.17;354711;113;1961989;-71
2021/01/13 02:04:44;;;;;;;19.69;11.32;;;;;;;-1.13;65.95;98607.80;343104;113;1961989;-71
2021/01/13 02:05:52;;;;;;;20.91;11.75;;;;;;;-1.12;65.81;98596.20;353661;113;1961963;-69
2021/01/13 02:07:10;;;;;;;21.31;11.72;;;;;;;-1.11;65.72;98605.00;352348;113;1961904;-71
2021/01/13 02:08:22;;;;;;;17.40;11.25;;;;;;;-1.12;65.57;98603.33;354598;112;1961949;-72
2021/01/13 02:09:29;;;;;;;21.29;12.16;;;;;;;-1.12;65.62;98593.55;328934;112;2473024;-68
2021/01/13 02:10:35;;;;;;;19.39;11.23;;;;;;;-1.12;65.50;98590.90;354489;113;1961972;-72
2021/01/13 02:11:45;;;;;;;20.44;12.53;;;;;;;-1.14;65.51;98592.90;356673;113;1961990;-72
2021/01/13 02:12:56;;;;;;;20.94;12.23;;;;;;;-1.16;65.48;98594.88;353956;112;1961908;-71
2021/01/13 02:14:01;;;;;;;19.98;10.80;;;;;;;-1.17;65.51;98585.23;330549;112;1964022;-72
2021/01/13 02:15:07;;;;;;;18.34;11.42;;;;;;;-1.18;65.31;98590.72;352631;113;1962998;-72
2021/01/13 02:16:16;;;;;;;20.54;11.18;;;;;;;-1.20;65.56;98574.96;316216;113;2729956;-72
2021/01/13 02:17:35;;;;;;;19.58;12.30;;;;;;;-1.19;65.48;98583.73;352745;115;1961951;-71
2021/01/13 02:18:48;;;;;;;21.24;12.04;;;;;;;-1.17;65.34;98581.77;355211;113;1961986;-71
2021/01/13 02:20:08;;;;;;;18.98;11.62;;;;;;;-1.17;65.20;98587.06;328483;113;1963003;-71
2021/01/13 02:21:21;;;;;;;19.73;12.70;;;;;;;-1.19;65.07;98599.63;351420;114;1961928;-72
2021/01/13 02:22:30;;;;;;;19.46;11.97;;;;;;;-1.22;65.00;98600.78;317214;115;2048397;-71
2021/01/13 02:24:10;;;;;;;19.56;12.26;;;;;;;-1.25;65.11;98593.14;314942;107;2218871;-71
2021/01/13 02:25:36;;;;;;;21.46;11.84;;;;;;;-1.23;65.14;98577.11;341187;117;1962018;-72
2021/01/13 02:27:22;;;;;;;24.22;11.79;;;;;;;-1.26;65.05;98578.25;307152;116;2727932;-72
2021/01/13 02:28:29;;;;;;;20.62;11.44;;;;;;;-1.29;65.14;98567.97;311873;116;2589031;-73
2021/01/13 02:29:41;;;;;;;19.46;10.72;;;;;;;-1.29;65.19;98562.67;341939;116;1962033;-74
2021/01/13 02:30:59;;;;;;;22.20;11.86;;;;;;;-1.27;65.25;98570.45;329059;117;2276008;-72
2021/01/13 02:32:16;;;;;;;22.36;13.98;;;;;;;-1.27;64.70;98560.70;304973;116;2759973;-73
2021/01/13 02:33:30;;;;;;;21.76;12.19;;;;;;;-1.27;64.50;98568.66;342066;115;1963901;-73
2021/01/13 02:34:48;;;;;;;26.34;13.27;;;;;;;-1.28;64.31;98563.50;341615;117;1963104;-72
2021/01/13 02:36:14;;;;;;;22.84;13.29;;;;;;;-1.31;64.20;98556.70;317468;116;2235972;-72
2021/01/13 02:37:42;;;;;;;22.80;13.57;;;;;;;-1.34;64.25;98562.31;340085;119;1961947;-72
2021/01/13 02:38:51;;;;;;;23.68;14.41;;;;;;;-1.35;64.24;98565.93;310001;119;1987563;-73
2021/01/13 02:40:11;;;;;;;26.91;15.73;;;;;;;-1.40;64.18;98566.42;319477;116;2236017;-72
2021/01/13 02:41:19;;;;;;;26.79;13.32;;;;;;;-1.41;64.30;98572.69;324652;112;1961948;-70
2021/01/13 02:42:30;;;;;;;24.92;15.11;;;;;;;-1.43;64.30;98566.74;354355;115;1960832;-71
2021/01/13 02:43:39;;;;;;;24.74;15.09;;;;;;;-1.43;64.41;98565.89;356863;113;1961837;-71
2021/01/13 02:44:49;;;;;;;27.49;15.61;;;;;;;-1.45;64.46;98563.41;353678;112;1961942;-71
2021/01/13 02:45:58;;;;;;;24.74;13.63;;;;;;;-1.44;64.56;98561.59;332320;114;1961863;-71
2021/01/13 02:47:08;;;;;;;26.55;15.74;;;;;;;-1.43;64.65;98565.89;318805;112;2012271;-71
2021/01/13 02:48:17;;;;;;;27.07;15.44;;;;;;;-1.42;64.80;98555.15;345524;115;1962863;-71
2021/01/13 02:49:32;;;;;;;26.61;15.18;;;;;;;-1.40;64.80;98547.05;338526;119;1963049;-72
2021/01/13 02:50:43;;;;;;;26.12;16.12;;;;;;;-1.39;64.89;98551.36;352386;113;1960889;-72
2021/01/13 02:51:52;;;;;;;24.71;14.98;;;;;;;-1.39;64.97;98541.59;353339;108;1961899;-71
2021/01/13 02:53:11;;;;;;;24.11;14.19;;;;;;;-1.37;64.83;98541.44;352504;113;1962020;-72
2021/01/13 02:54:34;;;;;;;26.74;15.18;;;;;;;-1.36;64.65;98549.21;345544;115;1961991;-71
2021/01/13 02:55:50;;;;;;;26.92;14.11;;;;;;;-1.36;64.75;98535.97;342985;115;1962051;-71
2021/01/13 02:57:01;;;;;;;29.06;16.10;;;;;;;-1.34;64.61;98527.88;320112;115;2504034;-72
2021/01/13 02:58:09;;;;;;;25.59;14.05;;;;;;;-1.35;64.53;98532.34;322196;115;2483043;-71
2021/01/13 02:59:15;;;;;;;22.84;14.19;;;;;;;-1.35;64.65;98529.70;351273;113;1963006;-71
2021/01/13 03:00:23;;;;;;;26.72;14.56;;;;;;;-1.34;64.41;98533.17;353989;115;1963107;-72
2021/01/13 03:01:30;;;;;;;27.75;15.67;;;;;;;-1.36;64.61;98546.56;344085;113;2871982;-71
2021/01/13 03:02:38;;;;;;;23.48;14.21;;;;;;;-1.34;64.39;98538.47;354112;113;1961889;-71
2021/01/13 03:03:45;;;;;;;24.23;14.53;;;;;;;-1.37;64.47;98538.79;311250;113;2764147;-71
2021/01/13 03:04:52;;;;;;;24.24;13.72;;;;;;;-1.36;64.43;98535.14;350706;115;1961012;-71
2021/01/13 03:06:01;;;;;;;22.19;13.56;;;;;;;-1.37;64.46;98530.84;336833;113;2210997;-71
2021/01/13 03:07:12;;;;;;;26.92;14.29;;;;;;;-1.36;64.41;98535.14;335985;113;2354076;-71
2021/01/13 03:08:19;;;;;;;27.43;15.25;;;;;;;-1.36;64.40;98532.49;352764;112;1964035;-71
2021/01/13 03:09:29;;;;;;;25.37;14.22;;;;;;;-1.37;64.29;98536.97;324323;112;2609864;-70
2021/01/13 03:10:48;;;;;;;23.23;14.24;;;;;;;-1.38;64.28;98535.28;323309;115;2235014;-70
2021/01/13 03:11:54;;;;;;;27.23;15.17;;;;;;;-1.38;64.19;98537.11;319904;113;2629944;-70
2021/01/13 03:13:02;;;;;;;26.02;15.54;;;;;;;-1.37;64.08;98531.67;338320;113;1962103;-70
2021/01/13 03:14:17;;;;;;;23.91;14.49;;;;;;;-1.39;64.10;98536.28;345209;115;1962062;-71
2021/01/13 03:15:25;;;;;;;26.80;15.37;;;;;;;-1.39;64.05;98538.94;306148;117;2228954;-72
2021/01/13 03:16:35;;;;;;;23.39;14.08;;;;;;;-1.44;64.15;98527.98;304197;115;2229929;-71
2021/01/13 03:17:47;;;;;;;25.83;15.92;;;;;;;-1.41;64.03;98538.25;333218;115;2212952;-71
2021/01/13 03:18:59;;;;;;;26.98;15.46;;;;;;;-1.43;64.12;98534.95;345614;115;1961961;-71
2021/01/13 03:20:26;;;;;;;22.16;12.84;;;;;;;-1.43;64.16;98534.95;332690;115;2330935;-71
2021/01/13 03:21:48;;;;;;;26.21;15.00;;;;;;;-1.41;64.18;98537.43;348746;115;1961890;-71
2021/01/13 03:23:22;;;;;;;22.40;13.07;;;;;;;-1.37;63.94;98533.49;306847;116;2067236;-71
2021/01/13 03:24:43;;;;;;;24.67;16.14;;;;;;;-1.39;63.81;98530.16;336474;113;2341939;-72
2021/01/13 03:25:58;;;;;;;21.93;13.92;;;;;;;-1.43;64.04;98524.36;354055;114;1962007;-71
2021/01/13 03:27:10;;;;;;;27.07;14.06;;;;;;;-1.42;64.11;98523.36;354801;114;1962980;31
2021/01/13 03:28:17;;;;;;;27.04;14.61;;;;;;;-1.40;64.12;98525.87;326123;113;2194832;-70
2021/01/13 03:29:26;;;;;;;25.31;14.19;;;;;;;-1.39;64.01;98519.56;347389;114;1963889;-70
2021/01/13 03:30:33;;;;;;;25.52;13.64;;;;;;;-1.37;63.91;98522.90;344367;115;1960785;-71
2021/01/13 03:31:52;;;;;;;25.34;13.72;;;;;;;-1.40;63.93;98516.09;346672;114;1960882;-71
2021/01/13 03:33:10;;;;;;;21.96;14.66;;;;;;;-1.41;63.93;98517.06;321416;119;2266857;-71
2021/01/13 03:34:23;;;;;;;25.44;14.57;;;;;;;-1.43;63.84;98507.61;333704;120;1960846;-70
2021/01/13 03:35:38;;;;;;;22.50;13.37;;;;;;;-1.41;64.01;98509.12;346516;115;1960872;-71
2021/01/13 03:36:59;;;;;;;25.31;13.86;;;;;;;-1.40;63.91;98500.20;340947;119;1961054;-71
2021/01/13 03:38:08;;;;;;;22.92;12.52;;;;;;;-1.39;63.84;98501.85;311284;111;2764744;-71
2021/01/13 03:39:18;;;;;;;24.21;14.58;;;;;;;-1.39;63.89;98496.55;320507;111;2833979;-72
2021/01/13 03:40:31;;;;;;;22.71;14.13;;;;;;;-1.38;63.59;98495.55;344366;111;2284995;-73
2021/01/13 03:41:57;;;;;;;24.09;13.96;;;;;;;-1.38;63.45;98494.73;361728;111;1964000;-73
2021/01/13 03:43:06;;;;;;;23.26;14.29;;;;;;;-1.41;63.63;98497.70;338800;111;2345004;-72
2021/01/13 03:44:28;;;;;;;21.82;13.15;;;;;;;-1.44;63.58;98496.20;321143;111;2683986;-72
2021/01/13 03:45:38;;;;;;;23.56;13.58;;;;;;;-1.42;63.55;98501.34;349162;113;1963026;-73
2021/01/13 03:46:45;;;;;;;25.63;14.38;;;;;;;-1.43;63.57;98500.52;329487;114;2213870;-72
2021/01/13 03:47:54;;;;;;;23.04;13.72;;;;;;;-1.42;63.48;98488.93;349121;114;1963911;-72
2021/01/13 03:49:03;;;;;;;22.57;13.85;;;;;;;-1.44;63.48;98505.97;351322;113;1964008;-72
2021/01/13 03:50:23;;;;;;;24.87;14.51;;;;;;;-1.46;63.60;98499.99;311099;115;2067996;-73
2021/01/13 03:51:39;;;;;;;27.19;15.88;;;;;;;-1.45;63.63;98499.02;348577;115;1962002;-73
2021/01/13 03:53:01;;;;;;;24.60;13.28;;;;;;;-1.45;63.68;98493.73;345024;117;1961993;-72
2021/01/13 03:54:08;;;;;;;22.73;14.20;;;;;;;-1.47;63.53;98485.92;327726;117;1962037;-72
2021/01/13 03:55:16;;;;;;;21.81;12.59;;;;;;;-1.51;63.56;98483.74;347480;115;1961963;-72
2021/01/13 03:56:28;;;;;;;22.53;13.77;;;;;;;-1.53;63.74;98486.56;346941;115;1961981;-72
2021/01/13 03:57:59;;;;;;;23.08;13.70;;;;;;;-1.52;63.81;98490.03;317656;117;2550945;-73
2021/01/13 03:59:07;;;;;;;22.83;13.25;;;;;;;-1.53;63.85;98483.06;319100;117;1961960;-72
2021/01/13 04:00:16;;;;;;;21.64;13.71;;;;;;;-1.53;63.97;98480.41;344363;115;1961948;-73
2021/01/13 04:02:31;;;;;;;21.12;13.66;;;;;;;-1.45;63.58;98473.36;365777;104;2514958;-71
2021/01/13 04:04:14;;;;;;;22.16;13.87;;;;;;;-1.56;63.81;98477.12;368353;107;1961954;-71
2021/01/13 04:05:26;;;;;;;24.51;14.23;;;;;;;-1.56;63.82;98468.35;328276;109;2695936;-71
2021/01/13 04:06:44;;;;;;;21.32;13.03;;;;;;;-1.58;64.02;98476.44;369435;109;1961896;-71
2021/01/13 04:07:55;;;;;;;21.48;13.51;;;;;;;-1.59;64.05;98466.84;362683;108;1964952;-71
2021/01/13 04:09:08;;;;;;;24.67;15.64;;;;;;;-1.59;64.18;98472.14;368996;109;1961896;31
2021/01/13 04:10:15;;;;;;;23.81;14.06;;;;;;;-1.58;64.18;98465.02;354295;111;1963972;-71
2021/01/13 04:11:23;;;;;;;24.42;15.29;;;;;;;-1.57;64.11;98459.55;339880;110;2851001;-71
2021/01/13 04:12:32;;;;;;;24.48;14.03;;;;;;;-1.55;64.10;98467.35;362703;110;1961949;-71
2021/01/13 04:13:45;;;;;;;23.62;13.67;;;;;;;-1.57;64.07;98462.20;362627;106;1961917;-73
2021/01/13 04:14:55;;;;;;;24.21;14.44;;;;;;;-1.56;64.22;98463.05;353947;113;1961975;-70
2021/01/13 04:16:01;;;;;;;23.50;13.58;;;;;;;-1.56;64.13;98452.46;361898;112;1963940;-71
2021/01/13 04:17:07;;;;;;;21.93;14.68;;;;;;;-1.56;64.21;98457.76;357435;112;1962908;-69
2021/01/13 04:18:15;;;;;;;23.38;14.40;;;;;;;-1.56;64.27;98455.94;359976;111;1960993;-71
2021/01/13 04:19:21;;;;;;;22.89;13.29;;;;;;;-1.54;64.27;98455.75;355525;114;1960945;-69
2021/01/13 04:20:29;;;;;;;22.87;12.91;;;;;;;-1.51;64.23;98451.96;355976;114;1962034;-70
2021/01/13 04:21:36;;;;;;;20.78;12.45;;;;;;;-1.50;64.12;98451.81;355209;114;1961854;-70
2021/01/13 04:22:52;;;;;;;20.78;12.78;;;;;;;-1.46;64.12;98455.79;358734;107;1960718;-71
2021/01/13 04:24:01;;;;;;;19.54;12.71;;;;;;;-1.43;63.84;98452.00;378884;107;1960877;-71
2021/01/13 04:25:08;;;;;;;19.57;12.34;;;;;;;-1.42;63.75;98449.20;374558;109;1960841;-71
2021/01/13 04:26:14;;;;;;;19.64;11.51;;;;;;;-1.41;63.63;98448.20;356912;109;1960698;-71
2021/01/13 04:27:21;;;;;;;18.19;10.80;;;;;;;-1.40;63.28;98444.58;373917;109;1960840;-72
2021/01/13 04:28:27;;;;;;;22.21;13.46;;;;;;;-1.39;63.09;98442.75;333485;109;2655932;-71
2021/01/13 04:29:33;;;;;;;19.09;11.61;;;;;;;-1.42;63.18;98456.32;359872;109;1959773;-71
2021/01/13 04:30:42;;;;;;;20.85;11.66;;;;;;;-1.43;63.19;98454.64;324452;109;2865874;-71
2021/01/13 04:31:48;;;;;;;18.89;10.97;;;;;;;-1.44;63.24;98447.70;368180;109;1961846;-70
2021/01/13 04:33:01;;;;;;;19.57;11.40;;;;;;;-1.44;63.23;98448.52;348058;109;2415968;-70
2021/01/13 04:34:07;;;;;;;19.69;11.02;;;;;;;-1.44;63.18;98452.99;364585;106;1961982;-69
2021/01/13 04:35:15;;;;;;;20.94;12.15;;;;;;;-1.45;63.28;98456.64;346818;108;2891960;-70
2021/01/13 04:36:25;;;;;;;19.01;11.94;;;;;;;-1.50;63.36;98448.34;366504;111;1964004;-70
2021/01/13 04:37:34;;;;;;;19.25;10.99;;;;;;;-1.51;63.47;98449.31;343911;105;2643929;-69
2021/01/13 04:38:41;;;;;;;19.43;9.98;;;;;;;-1.52;63.51;98447.66;381422;105;1960960;-71
2021/01/13 04:39:47;;;;;;;21.46;11.22;;;;;;;-1.53;63.43;98446.84;347185;106;1961964;-71
2021/01/13 04:41:11;;;;;;;20.08;11.67;;;;;;;-1.51;63.31;98451.96;373169;107;1961896;-72
2021/01/13 04:42:21;;;;;;;19.53;11.55;;;;;;;-1.52;63.32;98447.66;371900;107;1961994;-70
2021/01/13 04:43:28;;;;;;;20.51;11.43;;;;;;;-1.54;63.52;98453.11;366863;108;1962003;-71
2021/01/13 04:44:53;;;;;;;20.40;12.27;;;;;;;-1.57;63.53;98451.61;330762;107;2125549;-71
2021/01/13 04:46:02;;;;;;;17.93;10.66;;;;;;;-1.58;63.82;98447.31;360151;109;1962008;-72
2021/01/13 04:47:09;;;;;;;20.82;11.32;;;;;;;-1.58;63.74;98455.25;372256;107;1963945;-72
2021/01/13 04:48:19;;;;;;;19.69;12.11;;;;;;;-1.56;63.68;98449.81;353853;111;1962033;-72
2021/01/13 04:49:28;;;;;;;20.89;11.66;;;;;;;-1.58;63.72;98449.95;363812;107;2882840;-71
2021/01/13 04:50:40;;;;;;;19.82;11.17;;;;;;;-1.57;64.06;98448.13;356779;106;2287010;-71
2021/01/13 04:51:47;;;;;;;19.87;11.85;;;;;;;-1.55;64.06;98448.81;367869;106;1964012;-71
2021/01/13 04:52:56;;;;;;;21.31;12.54;;;;;;;-1.53;64.14;98444.19;369822;108;1961970;-72
2021/01/13 04:54:14;;;;;;;21.29;12.31;;;;;;;-1.51;64.35;98446.66;365375;107;1961965;-72
2021/01/13 04:55:23;;;;;;;20.13;11.77;;;;;;;-1.54;64.33;98437.22;364834;111;1962952;-70
2021/01/13 04:56:34;;;;;;;21.38;12.09;;;;;;;-1.55;64.31;98436.39;362331;109;1962019;-72
2021/01/13 04:58:01;;;;;;;20.48;11.49;;;;;;;-1.54;64.36;98431.92;325207;110;2077665;-71
2021/01/13 04:59:22;;;;;;;21.04;12.52;;;;;;;-1.55;64.34;98425.80;328746;115;1962981;-71
2021/01/13 05:00:36;;;;;;;19.12;10.60;;;;;;;-1.53;64.39;98425.66;317824;117;2599037;-71
2021/01/13 05:02:10;;;;;;;22.84;13.33;;;;;;;-1.55;64.28;98431.09;360987;108;1961938;-71
2021/01/13 05:03:38;;;;;;;21.87;12.11;;;;;;;-1.57;64.40;98432.25;363390;108;1962016;-72
2021/01/13 05:05:06;;;;;;;18.93;10.71;;;;;;;-1.59;64.51;98440.37;364431;109;1961987;-71
2021/01/13 05:06:42;;;;;;;18.54;12.01;;;;;;;-1.57;64.77;98443.66;363738;108;1962012;-71
2021/01/13 05:08:18;;;;;;;20.35;11.42;;;;;;;-1.55;64.53;98431.09;364370;110;1961946;-77
2021/01/13 05:09:27;;;;;;;20.54;11.98;;;;;;;-1.53;64.29;98440.69;364024;108;1959899;-72
2021/01/13 05:10:37;;;;;;;22.30;12.69;;;;;;;-1.51;64.46;98438.72;334445;108;2222995;-72
2021/01/13 05:11:46;;;;;;;22.61;13.11;;;;;;;-1.51;64.49;98436.08;320997;109;2858991;-72
2021/01/13 05:12:58;;;;;;;20.72;11.93;;;;;;;-1.51;64.54;98430.78;357952;111;1962982;-72
2021/01/13 05:14:05;;;;;;;20.65;11.81;;;;;;;-1.49;64.60;98420.86;354527;108;1961935;-72
2021/01/13 05:15:17;;;;;;;19.81;11.34;;;;;;;-1.48;64.66;98431.31;362097;110;1961999;-72
2021/01/13 05:16:27;;;;;;;22.36;13.15;;;;;;;-1.47;64.53;98425.01;341809;110;2872020;-72
2021/01/13 05:17:35;;;;;;;22.31;12.19;;;;;;;-1.45;64.54;98422.21;359458;110;1964321;-72
2021/01/13 05:18:53;;;;;;;20.62;12.22;;;;;;;-1.45;64.53;98420.39;343152;113;1961991;-72
2021/01/13 05:20:23;;;;;;;22.63;12.05;;;;;;;-1.43;64.60;98425.51;341559;110;2846983;-72